Flight Track Log - Related Links

Times and Time Zones

All times are in EDT time to prevent confusion due to time zone crossing. See the OPT452 flight status page for this flight to view local times or setup timezone preferences in your user account.

Time Position Orientation Groundspeed Altitude Reporting Facility
EDT Latitude Longitude Course Direction KTS MPH feet Rate Location/Type
Thu 07:52:56 PM 33.6167 -111.9167 270° West 133 153 2,400  Level Phoenix TRACON
Thu 07:53:38 PM 33.6167 -111.9500 270° West 155 178 3,200 1,440 Climbing Phoenix TRACON
Thu 07:54:11 PM 33.6372 -111.9794 310° West 183 211 4,200 2,147 Climbing Albuquerque Center
Thu 07:55:13 PM 33.6686 -112.0500 298° West 220 253 6,600 1,902 Climbing Albuquerque Center
Thu 07:56:14 PM 33.7292 -112.1019 325° Northwest 261 300 8,100 1,366 Climbing Albuquerque Center
Thu 07:57:16 PM 33.7925 -112.1497 328° Northwest 265 305 9,400 2,146 Climbing Albuquerque Center
Thu 07:58:17 PM 33.8697 -112.2117 326° Northwest 274 315 12,500 2,634 Climbing Albuquerque Center
Thu 07:59:19 PM 33.9408 -112.2653 328° Northwest 291 335 14,800 2,293 Climbing Albuquerque Center
Thu 08:00:20 PM 34.0172 -112.3233 328° Northwest 313 360 17,200 2,195 Climbing Albuquerque Center
Thu 08:01:22 PM 34.0978 -112.3758 332° Northwest 324 373 19,300 2,049 Climbing Albuquerque Center
Thu 08:02:23 PM 34.1817 -112.4272 333° Northwest 333 383 21,400 2,000 Climbing Albuquerque Center
Thu 08:03:25 PM 34.2675 -112.4808 333° Northwest 342 394 23,400 2,081 Climbing Albuquerque Center
Thu 08:04:27 PM 34.3547 -112.5347 333° Northwest 348 400 25,700 2,146 Climbing Albuquerque Center
Thu 08:05:28 PM 34.4394 -112.5889 332° Northwest 345 397 27,800 1,951 Climbing Albuquerque Center
Thu 08:06:30 PM 34.5256 -112.6419 333° Northwest 340 391 29,700 1,597 Climbing Albuquerque Center
Thu 08:07:32 PM 34.6103 -112.6953 333° Northwest 342 394 31,100 1,463 Climbing Albuquerque Center
Thu 08:08:33 PM 34.6961 -112.7894 318° Northwest 351 404 32,700 1,220 Climbing Albuquerque Center
Thu 08:09:35 PM 34.7181 -112.9050 283° West 353 406 33,600 823 Climbing Albuquerque Center
Thu 08:10:37 PM 34.7231 -113.0292 273° West 365 420 34,400 683 Climbing Albuquerque Center
Thu 08:11:38 PM 34.7275 -113.1578 272° West 376 433 35,000 585 Climbing Albuquerque Center
Thu 08:12:40 PM 34.7322 -113.2911 273° West 389 448 35,600 484 Climbing Albuquerque Center
Thu 08:13:42 PM 34.7361 -113.4258 272° West 396 456 36,000 195 Climbing Albuquerque Center
Thu 08:14:43 PM 34.7403 -113.5672 272° West 411 473 36,000  Level Albuquerque Center
Thu 08:15:45 PM 34.7458 -113.7422 272° West 429 494 36,000  Level Albuquerque Center
Thu 08:16:47 PM 34.7492 -113.8922 272° West 439 505 36,000  Level Albuquerque Center
Thu 08:17:03 PM 34.7514 -113.9225 275° West 444 511 36,000  Level Los Angeles Center
Thu 08:18:05 PM 34.7564 -114.0892 272° West 448 516 36,000  Level Los Angeles Center
Thu 08:19:07 PM 34.7594 -114.2400 271° West 447 514 36,000 -484 Level Los Angeles Center
Thu 08:20:09 PM 34.7631 -114.3908 272° West 447 514 35,000 -871 Descending Los Angeles Center
Thu 08:21:11 PM 34.7675 -114.5425 272° West 448 516 34,200 -484 Descending Los Angeles Center
Thu 08:22:13 PM 34.7703 -114.6933 271° West 446 513 34,000 -97 Descending Los Angeles Center
Thu 08:23:15 PM 34.7747 -114.8792 272° West 454 522 34,000  Level Los Angeles Center
Thu 08:24:17 PM 34.7769 -115.0353 271° West 459 528 34,000  Level Los Angeles Center
Thu 08:25:20 PM 34.7806 -115.1894 272° West 457 526 34,000  Level Los Angeles Center
Thu 08:26:22 PM 34.7831 -115.3442 271° West 457 526 34,000 -581 Level Los Angeles Center
Thu 08:27:24 PM 34.7856 -115.5014 271° West 459 528 32,800 -1,645 Descending Los Angeles Center
Thu 08:28:26 PM 34.7881 -115.6692 271° West 461 531 30,600 -2,129 Descending Los Angeles Center
Thu 08:29:28 PM 34.7903 -115.8314 271° West 477 549 28,400 -2,129 Descending Los Angeles Center
Thu 08:30:30 PM 34.7922 -115.9922 271° West 478 550 26,200 -2,177 Descending Los Angeles Center
Thu 08:31:32 PM 34.7936 -116.1531 271° West 477 549 23,900 -2,419 Descending Los Angeles Center
Thu 08:32:34 PM 34.7972 -116.3344 271° West 449 517 21,200 -2,419 Descending Los Angeles Center
Thu 08:33:36 PM 34.7967 -116.4814 270° West 436 502 18,900 -2,177 Descending Los Angeles Center
Thu 08:34:38 PM 34.7989 -116.6167 271° West 402 463 16,700 -2,129 Descending Los Angeles Center
Thu 08:35:40 PM 34.7944 -116.7494 268° West 393 452 14,500 -1,344 Descending Los Angeles Center
Thu 08:36:43 PM 34.7639 -116.8756 254° West 388 447 13,900 -288 Descending Los Angeles Center
Thu 08:37:45 PM 34.7519 -117.0031 264° West 384 442 13,900  Level Los Angeles Center
Thu 08:38:47 PM 34.7358 -117.1589 263° West 384 442 13,900 48 Level Los Angeles Center
Thu 08:39:49 PM 34.7217 -117.2878 262° West 384 442 14,000 -581 Climbing Los Angeles Center
Thu 08:40:51 PM 34.7108 -117.4178 264° West 385 443 12,700 -1,597 Descending Los Angeles Center
Thu 08:41:53 PM 34.7122 -117.5475 271° West 384 442 10,700 -1,306 Descending Los Angeles Center
Thu 08:42:55 PM 34.7128 -117.6628 270° West 354 407 10,000 -387 Descending Los Angeles Center
Thu 08:43:57 PM 34.7131 -117.7656 270° West 317 365 9,900 -529 Descending Los Angeles Center
Thu 08:45:11 PM 34.7250 -117.8592 279° West 296 341 8,800 -788 Descending Los Angeles Center
Thu 08:46:14 PM 34.7236 -117.9803 269° West 278 320 8,100 -384 Descending Los Angeles Center
Thu 08:47:16 PM 34.6714 -118.0503 228° Southwest 280 322 8,000 -48 Descending Los Angeles Center
Thu 08:48:18 PM 34.6189 -118.1208 228° Southwest 281 323 8,000  Level Los Angeles Center
Thu 08:49:20 PM 34.5617 -118.1947 227° Southwest 287 330 8,000  Level Los Angeles Center
Thu 08:50:22 PM 34.5050 -118.2675 227° Southwest 297 342 8,000  Level Los Angeles Center
Thu 08:51:24 PM 34.4333 -118.3000 201° Southwest 292 336 8,000 -435 Level Los Angeles Center
Thu 08:52:26 PM 34.3531 -118.2933 176° South 284 327 7,100 -484 Descending Los Angeles Center
Thu 08:53:28 PM 34.2578 -118.2828 175° South 287 330 7,000 -387 Descending Los Angeles Center
Thu 08:54:30 PM 34.1797 -118.2778 177° South 283 326 6,300 -1,645 Descending Los Angeles Center
Thu 08:55:32 PM 34.1167 -118.3219 210° Southwest 273 314 3,600 -1,664 Descending Los Angeles Center
Thu 08:56:47 PM 34.0619 -118.3953 228° Southwest 259 298 2,500 -1,147 Descending Los Angeles Center
Thu 08:57:48 PM 34.0300 -118.4356 226° Southwest 202 232 1,000 -1,171 Descending Los Angeles Center
Thu 08:58:50 PM 34.0169 -118.4531 228° Southwest 113 130 100 -871 Descending Los Angeles Center
Thu 09:00:00 PM 34.0158 -118.4513 244° Southwest  Level Estimated
Thu 09:07:00 PM 34.0158 -118.4513 244° Southwest  Level Estimated

Login

Don't have an account? Register now (free) for customized features, flight alerts, and more!